Time;durP1;ratioP1;P1;durP2;ratioP2;P2;SDS_P1;SDS_P2;PMS_P1;PMS_P2;Temp;Humidity;BMP_temperature;BMP_pressure;BME280_temperature;BME280_humidity;BME280_pressure;Samples;Min_cycle;Max_cycle;Signal;HPM_P1;HPM_P2
2022/06/20 00:00:58;;;;;;;;;;;26.10;46.20;;;;;;5072438;28;19912;-61
2022/06/20 00:03:25;;;;;;;;;;;26.00;46.10;;;;;;5072352;28;19912;-61
2022/06/20 00:05:50;;;;;;;;;;;26.00;46.10;;;;;;5055674;28;20367;-61
2022/06/20 00:08:16;;;;;;;;;;;26.10;46.20;;;;;;5058197;28;19908;-61
2022/06/20 00:10:42;;;;;;;;;;;26.00;46.10;;;;;;5076117;28;20280;-61
2022/06/20 00:13:09;;;;;;;;;;;26.00;46.10;;;;;;5076067;28;19908;-61
2022/06/20 00:15:35;;;;;;;;;;;26.00;46.10;;;;;;5076244;28;19966;-61
2022/06/20 00:18:01;;;;;;;;;;;26.10;46.20;;;;;;5058144;28;20280;-61
2022/06/20 00:20:27;;;;;;;;;;;26.00;46.20;;;;;;5075804;28;20412;-61
2022/06/20 00:22:52;;;;;;;;;;;26.00;46.20;;;;;;5058127;28;19952;-61
2022/06/20 00:25:19;;;;;;;;;;;26.00;46.20;;;;;;5075837;28;19916;-62
2022/06/20 00:27:44;;;;;;;;;;;26.00;46.20;;;;;;5075851;28;19912;-62
2022/06/20 00:30:10;;;;;;;;;;;26.00;46.20;;;;;;5057857;28;20348;-61
2022/06/20 00:32:36;;;;;;;;;;;26.00;46.20;;;;;;5075609;28;19908;-61
2022/06/20 00:35:02;;;;;;;;;;;26.00;46.20;;;;;;5075685;28;19977;-62
2022/06/20 00:37:27;;;;;;;;;;;26.00;46.20;;;;;;5075766;28;19916;-61
2022/06/20 00:39:53;;;;;;;;;;;26.00;46.20;;;;;;5075657;28;20364;-61
2022/06/20 00:42:18;;;;;;;;;;;26.00;46.10;;;;;;5075646;28;19916;-61
2022/06/20 00:44:45;;;;;;;;;;;25.90;46.10;;;;;;5075558;28;20365;-61
2022/06/20 00:47:12;;;;;;;;;;;26.00;46.20;;;;;;5073880;28;19908;-61
2022/06/20 00:49:43;;;;;;;;;;;26.00;46.20;;;;;;5057657;28;19919;-61
2022/06/20 00:52:11;;;;;;;;;;;25.90;46.30;;;;;;5057530;28;19908;-61
2022/06/20 00:54:41;;;;;;;;;;;25.90;46.20;;;;;;5075207;28;19912;-61
2022/06/20 00:57:10;;;;;;;;;;;25.90;46.20;;;;;;5057407;28;19915;-61
2022/06/20 00:59:40;;;;;;;;;;;25.90;46.30;;;;;;5057193;28;19919;-61
2022/06/20 01:02:06;;;;;;;;;;;25.90;46.30;;;;;;5057230;28;19909;-61
2022/06/20 01:04:45;;;;;;;;;;;25.90;46.30;;;;;;5075040;28;19980;-61
2022/06/20 01:07:22;;;;;;;;;;;25.90;46.40;;;;;;5075052;28;19916;-61
2022/06/20 01:09:48;;;;;;;;;;;25.80;46.20;;;;;;5057389;28;19908;-61
2022/06/20 01:12:15;;;;;;;;;;;25.90;46.40;;;;;;5057108;28;19963;-61
2022/06/20 01:14:41;;;;;;;;;;;25.80;46.40;;;;;;5057288;28;20249;-61
2022/06/20 01:17:07;;;;;;;;;;;25.80;46.30;;;;;;5074407;28;19915;-61
2022/06/20 01:19:36;;;;;;;;;;;25.80;46.40;;;;;;5074679;28;19920;-61
2022/06/20 01:22:02;;;;;;;;;;;25.80;46.20;;;;;;5074801;28;20395;-61
2022/06/20 01:24:30;;;;;;;;;;;25.80;46.20;;;;;;5074730;28;20421;-61
2022/06/20 01:27:13;;;;;;;;;;;25.90;46.30;;;;;;5074706;28;20399;-61
2022/06/20 01:29:39;;;;;;;;;;;25.80;46.30;;;;;;5074521;28;19999;-61
2022/06/20 01:32:04;;;;;;;;;;;25.80;46.30;;;;;;5074892;28;20391;-61
2022/06/20 01:34:30;;;;;;;;;;;25.80;46.30;;;;;;5074741;28;19908;-61
2022/06/20 01:39:41;;;;;;;;;;;25.80;46.30;;;;;;5074272;28;19919;-61
2022/06/20 01:42:19;;;;;;;;;;;25.80;46.40;;;;;;5074377;28;19909;-61
2022/06/20 01:44:50;;;;;;;;;;;25.80;46.40;;;;;;5058227;28;19913;-61
2022/06/20 01:47:15;;;;;;;;;;;25.80;46.30;;;;;;5074193;28;19908;-61
2022/06/20 01:49:41;;;;;;;;;;;25.80;46.30;;;;;;5074154;28;19908;-61
2022/06/20 01:52:08;;;;;;;;;;;25.80;46.30;;;;;;5089767;28;19916;-61
2022/06/20 01:54:38;;;;;;;;;;;25.80;46.40;;;;;;5056378;28;19923;-62
2022/06/20 01:57:05;;;;;;;;;;;25.80;46.40;;;;;;5056428;28;19908;-61
2022/06/20 01:59:32;;;;;;;;;;;25.80;46.40;;;;;;5056296;28;19999;-61
2022/06/20 02:01:57;;;;;;;;;;;25.70;46.20;;;;;;5056491;28;19993;-62
2022/06/20 02:04:27;;;;;;;;;;;25.70;46.20;;;;;;5073797;28;19956;-61
2022/06/20 02:06:52;;;;;;;;;;;25.70;46.30;;;;;;5073951;28;19962;-61
2022/06/20 02:09:18;;;;;;;;;;;25.70;46.30;;;;;;5055992;28;19908;-61
2022/06/20 02:11:44;;;;;;;;;;;25.70;46.20;;;;;;5073800;28;19995;-61
2022/06/20 02:14:09;;;;;;;;;;;25.70;46.20;;;;;;5073799;28;19962;-61
2022/06/20 02:16:35;;;;;;;;;;;25.70;46.30;;;;;;5073708;28;19952;-61
2022/06/20 02:19:01;;;;;;;;;;;25.70;46.20;;;;;;5073577;28;19908;-61
2022/06/20 02:21:28;;;;;;;;;;;25.70;46.40;;;;;;5055669;28;19963;-61
2022/06/20 02:23:55;;;;;;;;;;;25.70;46.40;;;;;;5055741;28;19909;-61
2022/06/20 02:26:21;;;;;;;;;;;25.60;46.30;;;;;;5055724;28;19915;-61
2022/06/20 02:29:01;;;;;;;;;;;25.70;46.40;;;;;;5073182;28;19913;-61
2022/06/20 02:31:26;;;;;;;;;;;25.70;46.40;;;;;;5071942;28;19926;-61
2022/06/20 02:33:53;;;;;;;;;;;25.70;46.40;;;;;;5073399;28;19908;-61
2022/06/20 02:36:18;;;;;;;;;;;25.70;46.40;;;;;;5055772;28;19942;-61
2022/06/20 02:38:44;;;;;;;;;;;25.60;46.30;;;;;;5055266;28;19913;-61
2022/06/20 02:41:09;;;;;;;;;;;25.70;46.40;;;;;;5073313;28;19999;-61
2022/06/20 02:43:45;;;;;;;;;;;25.70;46.40;;;;;;5073277;28;19920;-61
2022/06/20 02:46:12;;;;;;;;;;;25.60;46.30;;;;;;5073313;28;19909;-61
2022/06/20 02:48:39;;;;;;;;;;;25.60;46.40;;;;;;5073008;28;19935;-61
2022/06/20 02:51:06;;;;;;;;;;;25.60;46.40;;;;;;5073257;28;20066;-61
2022/06/20 02:53:51;;;;;;;;;;;25.60;46.40;;;;;;5073365;28;20375;-61
2022/06/20 02:56:18;;;;;;;;;;;25.60;46.40;;;;;;5073199;28;20394;-61
2022/06/20 02:58:44;;;;;;;;;;;25.60;46.40;;;;;;5055164;28;19923;-61
2022/06/20 03:01:14;;;;;;;;;;;25.60;46.40;;;;;;5055179;28;20422;-61
2022/06/20 03:03:43;;;;;;;;;;;25.60;46.30;;;;;;5055169;28;19912;-61
2022/06/20 03:06:10;;;;;;;;;;;25.60;46.40;;;;;;5073115;28;19936;-61
2022/06/20 03:08:36;;;;;;;;;;;25.60;46.40;;;;;;5072839;28;19915;-61
2022/06/20 03:11:04;;;;;;;;;;;25.60;46.40;;;;;;5055036;28;19908;-61
2022/06/20 03:13:29;;;;;;;;;;;25.60;46.40;;;;;;5088465;28;20003;-61
2022/06/20 03:15:55;;;;;;;;;;;25.50;46.40;;;;;;5055168;28;20403;-61
2022/06/20 03:18:21;;;;;;;;;;;25.60;46.40;;;;;;5072905;28;19914;-61
2022/06/20 03:20:46;;;;;;;;;;;25.60;46.40;;;;;;5071579;28;19936;-61
2022/06/20 03:23:19;;;;;;;;;;;25.60;46.40;;;;;;5072847;28;20364;-61
2022/06/20 03:25:45;;;;;;;;;;;25.60;46.40;;;;;;5054872;28;19912;-61
2022/06/20 03:28:14;;;;;;;;;;;25.50;46.30;;;;;;5055213;28;20369;-61
2022/06/20 03:30:39;;;;;;;;;;;25.60;46.40;;;;;;5054794;28;19963;-61
2022/06/20 03:33:05;;;;;;;;;;;25.50;46.30;;;;;;5072748;28;19912;-62
2022/06/20 03:35:31;;;;;;;;;;;25.60;46.40;;;;;;5072670;28;20387;-62
2022/06/20 03:38:00;;;;;;;;;;;25.50;46.30;;;;;;5055056;28;19908;-61
2022/06/20 03:40:26;;;;;;;;;;;25.60;46.30;;;;;;5054923;28;19943;-61
2022/06/20 03:42:52;;;;;;;;;;;25.50;46.30;;;;;;5076776;28;19916;-62
2022/06/20 03:45:17;;;;;;;;;;;25.50;46.40;;;;;;5058619;28;20007;-61
2022/06/20 03:47:44;;;;;;;;;;;25.50;46.40;;;;;;5041706;28;19917;-61
2022/06/20 03:50:09;;;;;;;;;;;25.50;46.50;;;;;;5058638;28;20057;-61
2022/06/20 03:52:39;;;;;;;;;;;25.50;46.40;;;;;;5076353;28;20386;-61
2022/06/20 03:55:06;;;;;;;;;;;25.50;46.40;;;;;;5058499;28;20074;-61
2022/06/20 03:57:32;;;;;;;;;;;25.50;46.30;;;;;;5058514;28;19909;-61
2022/06/20 04:00:13;;;;;;;;;;;25.50;46.40;;;;;;5076284;28;19912;-61
2022/06/20 04:02:59;;;;;;;;;;;25.50;46.40;;;;;;5076188;28;20044;-61
2022/06/20 04:05:24;;;;;;;;;;;25.50;46.30;;;;;;5075445;28;20025;-61
2022/06/20 04:07:54;;;;;;;;;;;25.50;46.30;;;;;;5076074;28;19914;-61
2022/06/20 04:13:26;;;;;;;;;;;25.40;46.30;;;;;;5061048;28;19954;-61
2022/06/20 04:15:54;;;;;;;;;;;25.50;46.40;;;;;;5058101;28;19994;-62
2022/06/20 04:18:28;;;;;;;;;;;25.40;46.30;;;;;;5075847;28;19910;-61
2022/06/20 04:21:12;;;;;;;;;;;25.50;46.30;;;;;;5059209;28;19947;-61
2022/06/20 04:24:04;;;;;;;;;;;25.50;46.30;;;;;;5075674;28;20287;-61
2022/06/20 04:26:37;;;;;;;;;;;25.50;46.30;;;;;;5072636;28;19947;-61
2022/06/20 04:29:32;;;;;;;;;;;25.50;46.20;;;;;;5057827;28;20395;-61
2022/06/20 04:32:02;;;;;;;;;;;25.50;46.90;;;;;;5062021;28;19916;-61
2022/06/20 04:34:27;;;;;;;;;;;25.50;46.30;;;;;;5057538;28;19995;-61
2022/06/20 04:36:53;;;;;;;;;;;25.50;46.30;;;;;;5075576;28;20355;-61
2022/06/20 04:39:21;;;;;;;;;;;25.50;46.30;;;;;;5075409;28;20364;-62
2022/06/20 04:41:49;;;;;;;;;;;25.50;46.20;;;;;;5075450;28;19912;-61
2022/06/20 04:44:23;;;;;;;;;;;25.50;46.10;;;;;;5090954;28;19912;-61
2022/06/20 04:46:54;;;;;;;;;;;25.50;46.20;;;;;;5057484;28;20018;-61
2022/06/20 04:49:20;;;;;;;;;;;25.50;46.20;;;;;;5057241;28;20288;-61
2022/06/20 04:51:46;;;;;;;;;;;25.40;46.20;;;;;;5057421;28;19909;-61
2022/06/20 04:54:15;;;;;;;;;;;25.40;46.20;;;;;;5073625;28;21342;-61
2022/06/20 04:56:40;;;;;;;;;;;25.40;46.20;;;;;;5075561;28;20360;-61
2022/06/20 04:59:07;;;;;;;;;;;25.40;46.20;;;;;;5075384;28;19931;-61
2022/06/20 05:01:32;;;;;;;;;;;25.50;46.20;;;;;;5057187;28;20383;-61
2022/06/20 05:04:01;;;;;;;;;;;25.50;46.20;;;;;;5075030;28;19908;-60
2022/06/20 05:06:28;;;;;;;;;;;25.40;46.10;;;;;;5057216;28;19951;-61
2022/06/20 05:08:55;;;;;;;;;;;25.40;46.10;;;;;;5057067;28;19908;-61
2022/06/20 05:11:25;;;;;;;;;;;25.40;46.10;;;;;;5057060;28;20280;-61
2022/06/20 05:14:09;;;;;;;;;;;25.40;46.30;;;;;;5056688;28;20372;-61
2022/06/20 05:16:38;;;;;;;;;;;25.40;46.20;;;;;;5074609;28;20418;-61
2022/06/20 05:19:08;;;;;;;;;;;25.40;46.20;;;;;;5056887;28;20326;-61
2022/06/20 05:21:39;;;;;;;;;;;25.40;46.30;;;;;;5073192;28;20321;-61
2022/06/20 05:24:14;;;;;;;;;;;25.40;46.30;;;;;;5089956;28;20000;-61
2022/06/20 05:26:41;;;;;;;;;;;25.40;46.30;;;;;;5074644;28;19991;-61
2022/06/20 05:29:07;;;;;;;;;;;25.40;46.30;;;;;;5056695;28;20352;-61
2022/06/20 05:31:36;;;;;;;;;;;25.40;46.30;;;;;;5056576;28;19934;-61
2022/06/20 05:34:04;;;;;;;;;;;25.40;46.10;;;;;;5074381;28;19915;-61
2022/06/20 05:36:35;;;;;;;;;;;25.40;46.20;;;;;;5056548;28;20287;-61
2022/06/20 05:39:03;;;;;;;;;;;25.40;46.20;;;;;;5074300;28;19920;-61
2022/06/20 05:41:28;;;;;;;;;;;25.40;46.20;;;;;;5074202;28;19935;-61
2022/06/20 05:43:54;;;;;;;;;;;25.40;46.10;;;;;;5074135;28;20364;-61
2022/06/20 05:46:22;;;;;;;;;;;25.40;46.10;;;;;;5056400;28;20355;-61
2022/06/20 05:48:49;;;;;;;;;;;25.40;46.10;;;;;;5074047;28;19920;-61
2022/06/20 05:51:16;;;;;;;;;;;25.40;46.10;;;;;;5074153;28;19920;-61
2022/06/20 05:53:49;;;;;;;;;;;25.40;46.20;;;;;;5056233;28;19919;-61
2022/06/20 05:56:17;;;;;;;;;;;25.40;46.10;;;;;;5056175;28;20003;-61
2022/06/20 05:58:43;;;;;;;;;;;25.40;46.10;;;;;;5055906;28;20015;-61
2022/06/20 06:01:11;;;;;;;;;;;25.40;46.10;;;;;;5073932;28;20003;-61
2022/06/20 06:03:41;;;;;;;;;;;25.40;46.10;;;;;;5055767;28;20309;-61
2022/06/20 06:06:10;;;;;;;;;;;25.40;46.10;;;;;;5056002;28;20003;-61
2022/06/20 06:08:52;;;;;;;;;;;25.40;45.90;;;;;;5055831;28;19909;-61
2022/06/20 06:11:19;;;;;;;;;;;25.40;46.00;;;;;;5055722;28;20415;-61
2022/06/20 06:14:08;;;;;;;;;;;25.40;46.60;;;;;;5073600;28;19913;-61
2022/06/20 06:16:49;;;;;;;;;;;25.40;46.10;;;;;;5065075;28;20384;-61
2022/06/20 06:19:14;;;;;;;;;;;25.40;46.10;;;;;;5057419;28;19908;-61
2022/06/20 06:21:40;;;;;;;;;;;25.40;45.90;;;;;;5073433;28;19915;-61
2022/06/20 06:24:06;;;;;;;;;;;25.40;45.90;;;;;;5055594;28;19912;-62
2022/06/20 06:26:31;;;;;;;;;;;25.40;45.90;;;;;;5073189;28;19916;-61
2022/06/20 06:28:56;;;;;;;;;;;25.40;45.90;;;;;;5055159;28;19916;-61
2022/06/20 06:31:23;;;;;;;;;;;25.40;45.90;;;;;;5073103;28;19942;-61
2022/06/20 06:34:10;;;;;;;;;;;25.40;45.90;;;;;;5073242;28;20322;-61
2022/06/20 06:36:37;;;;;;;;;;;25.40;45.90;;;;;;5054916;28;19924;-61
2022/06/20 06:39:20;;;;;;;;;;;25.40;46.00;;;;;;5055164;28;20356;-61
2022/06/20 06:41:47;;;;;;;;;;;25.30;46.00;;;;;;5055277;28;19956;-61
2022/06/20 06:44:29;;;;;;;;;;;25.30;46.10;;;;;;5055572;28;19908;-61
2022/06/20 06:46:54;;;;;;;;;;;25.30;46.00;;;;;;5055341;28;20236;-61
2022/06/20 06:49:31;;;;;;;;;;;25.40;46.00;;;;;;5054962;28;19942;-61
2022/06/20 06:52:01;;;;;;;;;;;25.30;46.00;;;;;;5055315;28;19916;-61
2022/06/20 06:54:43;;;;;;;;;;;25.30;46.00;;;;;;5054996;28;19908;-61
2022/06/20 06:57:10;;;;;;;;;;;25.30;46.00;;;;;;5055579;28;19908;-61
2022/06/20 06:59:38;;;;;;;;;;;25.30;46.00;;;;;;5054957;28;19923;-61
2022/06/20 07:02:03;;;;;;;;;;;25.30;46.00;;;;;;5055248;28;19908;-61
2022/06/20 07:04:33;;;;;;;;;;;25.30;46.00;;;;;;5072835;28;19915;-61
2022/06/20 07:07:05;;;;;;;;;;;25.30;46.00;;;;;;5054939;28;19909;-61
2022/06/20 07:09:34;;;;;;;;;;;25.30;45.90;;;;;;5054795;28;19915;-61
2022/06/20 07:12:03;;;;;;;;;;;25.30;45.90;;;;;;5055077;28;19909;-62
2022/06/20 07:14:28;;;;;;;;;;;25.30;46.00;;;;;;5055010;28;20287;-61
2022/06/20 07:16:56;;;;;;;;;;;25.30;46.00;;;;;;5054440;28;19916;-61
2022/06/20 07:19:24;;;;;;;;;;;25.30;46.00;;;;;;5073028;28;19966;-61
2022/06/20 07:21:49;;;;;;;;;;;25.30;46.00;;;;;;5055057;28;20437;-61
2022/06/20 07:24:16;;;;;;;;;;;25.30;45.90;;;;;;5055017;28;19917;-62
2022/06/20 07:26:42;;;;;;;;;;;25.30;46.00;;;;;;5054826;28;19909;-62
2022/06/20 07:29:11;;;;;;;;;;;25.30;46.00;;;;;;5054823;28;19916;-61
2022/06/20 07:31:43;;;;;;;;;;;25.30;45.90;;;;;;5072635;28;19915;-62
2022/06/20 07:34:11;;;;;;;;;;;25.30;45.90;;;;;;5054682;28;19908;-63
2022/06/20 07:36:44;;;;;;;;;;;25.30;46.00;;;;;;5072609;28;20387;-63
2022/06/20 07:39:15;;;;;;;;;;;25.30;46.00;;;;;;5072411;28;19908;-61
2022/06/20 07:41:41;;;;;;;;;;;25.30;46.00;;;;;;5054651;28;19912;-62
2022/06/20 07:44:10;;;;;;;;;;;25.30;45.90;;;;;;5072578;28;20330;-61
2022/06/20 07:46:40;;;;;;;;;;;25.30;45.80;;;;;;5054545;28;19928;-61
2022/06/20 07:49:08;;;;;;;;;;;25.40;45.90;;;;;;5054636;28;20343;-62
2022/06/20 07:51:35;;;;;;;;;;;25.40;45.90;;;;;;5054691;28;20273;-61
2022/06/20 07:54:06;;;;;;;;;;;25.30;45.90;;;;;;5054492;28;19909;-61
2022/06/20 07:56:35;;;;;;;;;;;25.30;45.80;;;;;;5072486;28;19908;-61
2022/06/20 07:59:06;;;;;;;;;;;25.40;46.00;;;;;;5072504;28;19914;-61
2022/06/20 08:01:37;;;;;;;;;;;25.40;45.90;;;;;;5054369;28;19912;-61
2022/06/20 08:04:03;;;;;;;;;;;25.40;45.80;;;;;;5054342;28;19954;-61
2022/06/20 08:06:34;;;;;;;;;;;25.40;45.80;;;;;;5071131;28;20387;-61
2022/06/20 08:09:03;;;;;;;;;;;25.40;45.80;;;;;;5054745;28;19909;-61
2022/06/20 08:11:42;;;;;;;;;;;25.40;45.90;;;;;;5071026;28;19908;-62
2022/06/20 08:14:10;;;;;;;;;;;25.40;45.90;;;;;;5054816;28;19909;-61
2022/06/20 08:16:36;;;;;;;;;;;25.40;45.90;;;;;;5054705;28;20338;-62
2022/06/20 08:19:01;;;;;;;;;;;25.40;45.80;;;;;;5072321;28;19999;-62
2022/06/20 08:21:27;;;;;;;;;;;25.40;45.80;;;;;;5054251;28;20395;-61
2022/06/20 08:24:12;;;;;;;;;;;25.40;45.80;;;;;;5054387;28;19954;-61
2022/06/20 08:26:39;;;;;;;;;;;25.40;45.80;;;;;;5071941;28;19908;-61
2022/06/20 08:29:09;;;;;;;;;;;25.40;45.80;;;;;;5056854;28;20272;-61
2022/06/20 08:31:35;;;;;;;;;;;25.40;45.90;;;;;;5057644;28;19915;-61
2022/06/20 08:34:11;;;;;;;;;;;25.30;45.80;;;;;;5057494;28;20047;-61
2022/06/20 08:36:48;;;;;;;;;;;25.30;45.80;;;;;;5057836;28;19915;-62
2022/06/20 08:39:17;;;;;;;;;;;25.30;45.80;;;;;;5091019;28;20281;-61
2022/06/20 08:42:01;;;;;;;;;;;25.40;45.90;;;;;;5075335;28;19916;-61
2022/06/20 08:44:49;;;;;;;;;;;25.40;45.80;;;;;;5075276;28;20007;-61
2022/06/20 08:47:18;;;;;;;;;;;25.40;45.70;;;;;;5066698;28;19909;-61
2022/06/20 08:49:49;;;;;;;;;;;25.40;45.70;;;;;;5075221;28;19913;-60
2022/06/20 08:52:33;;;;;;;;;;;25.40;45.60;;;;;;5057144;28;20262;-61
2022/06/20 08:55:04;;;;;;;;;;;25.40;45.60;;;;;;5074884;28;19955;-61
2022/06/20 08:57:32;;;;;;;;;;;25.40;45.60;;;;;;5075095;28;19934;-61
2022/06/20 09:00:09;;;;;;;;;;;25.40;45.60;;;;;;5074992;28;19912;-61
2022/06/20 09:02:57;;;;;;;;;;;25.40;45.70;;;;;;5074969;28;19912;-61
2022/06/20 09:05:30;;;;;;;;;;;25.40;45.60;;;;;;5056871;28;19908;-61
2022/06/20 09:08:11;;;;;;;;;;;25.40;45.60;;;;;;5073636;28;19958;-62
2022/06/20 09:10:45;;;;;;;;;;;25.40;45.60;;;;;;5074872;28;20280;-61
2022/06/20 09:13:28;;;;;;;;;;;25.40;45.50;;;;;;5074818;28;19954;-61
2022/06/20 09:16:02;;;;;;;;;;;25.40;45.50;;;;;;5056744;28;19942;-61
2022/06/20 09:18:32;;;;;;;;;;;25.40;45.40;;;;;;5056698;28;19912;-61
2022/06/20 09:21:03;;;;;;;;;;;25.40;45.50;;;;;;5056917;28;20295;-61
2022/06/20 09:23:29;;;;;;;;;;;25.40;45.40;;;;;;5074551;28;19909;-61
2022/06/20 09:25:55;;;;;;;;;;;25.40;45.40;;;;;;5074514;28;19909;-61
2022/06/20 09:28:21;;;;;;;;;;;25.40;45.30;;;;;;5074509;28;19913;-61
2022/06/20 09:31:00;;;;;;;;;;;25.50;45.20;;;;;;5074426;28;19908;-61
2022/06/20 09:33:29;;;;;;;;;;;25.50;45.40;;;;;;5056640;28;20292;-61
2022/06/20 09:36:03;;;;;;;;;;;25.50;45.20;;;;;;5074347;28;19908;-61
2022/06/20 09:38:34;;;;;;;;;;;25.50;45.10;;;;;;5039350;28;20380;-61
2022/06/20 09:40:59;;;;;;;;;;;25.50;45.20;;;;;;5074144;28;20401;-61
2022/06/20 09:43:35;;;;;;;;;;;25.50;45.10;;;;;;5074114;28;19912;-61
2022/06/20 09:46:06;;;;;;;;;;;25.50;45.20;;;;;;5074265;28;20380;-61
2022/06/20 09:48:35;;;;;;;;;;;25.50;45.20;;;;;;5074117;28;19921;-61
2022/06/20 09:51:10;;;;;;;;;;;25.50;45.10;;;;;;5056242;28;19978;-62
2022/06/20 09:53:45;;;;;;;;;;;25.50;45.20;;;;;;5056146;28;19912;-61
2022/06/20 09:56:12;;;;;;;;;;;25.50;45.20;;;;;;5056296;28;19908;-62
2022/06/20 09:58:47;;;;;;;;;;;25.50;45.20;;;;;;5073943;28;19955;-61
2022/06/20 10:01:25;;;;;;;;;;;25.40;45.10;;;;;;5055571;28;19912;-61
2022/06/20 10:03:50;;;;;;;;;;;25.40;45.20;;;;;;5073656;28;19909;-61
2022/06/20 10:06:28;;;;;;;;;;;25.50;45.20;;;;;;5073767;28;20038;-61
2022/06/20 10:08:57;;;;;;;;;;;25.50;45.20;;;;;;5073496;28;19908;-62
2022/06/20 10:11:24;;;;;;;;;;;25.50;45.20;;;;;;5056057;28;20419;-60
2022/06/20 10:13:56;;;;;;;;;;;25.50;45.40;;;;;;5055836;28;20347;-61
2022/06/20 10:16:24;;;;;;;;;;;25.50;45.60;;;;;;5073584;28;19909;-61
2022/06/20 10:19:01;;;;;;;;;;;25.40;45.80;;;;;;5073513;28;19909;-61
2022/06/20 10:21:29;;;;;;;;;;;25.40;45.70;;;;;;5055748;28;19920;-61
2022/06/20 10:24:01;;;;;;;;;;;25.40;45.70;;;;;;5073417;28;20035;-61
2022/06/20 10:26:38;;;;;;;;;;;25.50;45.70;;;;;;5073438;28;19908;-61
2022/06/20 10:29:23;;;;;;;;;;;25.40;45.50;;;;;;5073326;28;19932;-62
2022/06/20 10:31:55;;;;;;;;;;;25.40;45.60;;;;;;5055202;28;19908;-61
2022/06/20 10:34:31;;;;;;;;;;;25.50;45.50;;;;;;5072066;28;20368;-61
2022/06/20 10:36:58;;;;;;;;;;;25.50;45.40;;;;;;5055597;28;19908;-61
2022/06/20 10:39:42;;;;;;;;;;;25.50;45.50;;;;;;5071739;28;19908;-61
2022/06/20 10:42:13;;;;;;;;;;;25.50;45.40;;;;;;5072960;28;19909;-61
2022/06/20 10:44:43;;;;;;;;;;;25.50;45.50;;;;;;5072929;28;20430;-61
2022/06/20 10:47:24;;;;;;;;;;;25.40;45.40;;;;;;5054969;28;20320;-62
2022/06/20 10:50:08;;;;;;;;;;;25.40;45.60;;;;;;5072594;28;19915;-62
2022/06/20 10:52:43;;;;;;;;;;;25.40;45.50;;;;;;5072768;28;19954;-62
2022/06/20 10:55:15;;;;;;;;;;;25.40;45.60;;;;;;5072850;28;19916;-62
2022/06/20 10:57:53;;;;;;;;;;;25.40;45.70;;;;;;5072927;28;19909;-62
2022/06/20 11:00:20;;;;;;;;;;;25.40;45.70;;;;;;5054946;28;19919;-62
2022/06/20 11:03:04;;;;;;;;;;;25.40;45.60;;;;;;5088619;28;19985;-62
2022/06/20 11:05:56;;;;;;;;;;;25.40;45.50;;;;;;5073114;28;20032;-62
2022/06/20 11:08:40;;;;;;;;;;;25.40;45.30;;;;;;5069784;28;20347;-62
2022/06/20 11:11:17;;;;;;;;;;;25.50;45.40;;;;;;5072927;28;19912;-62
2022/06/20 11:13:43;;;;;;;;;;;25.50;45.30;;;;;;5072946;28;19962;-62
2022/06/20 11:16:14;;;;;;;;;;;25.50;45.30;;;;;;5072772;28;19913;-62
2022/06/20 11:18:58;;;;;;;;;;;25.50;45.20;;;;;;5072693;28;19915;-62
2022/06/20 11:21:29;;;;;;;;;;;25.60;44.90;;;;;;5072741;28;19916;-62
2022/06/20 11:24:02;;;;;;;;;;;25.50;44.80;;;;;;5054687;28;19909;-62
2022/06/20 11:26:46;;;;;;;;;;;25.50;44.80;;;;;;5054813;28;19961;-62
2022/06/20 11:29:28;;;;;;;;;;;25.50;44.90;;;;;;5071361;28;19931;-62
2022/06/20 11:31:57;;;;;;;;;;;25.50;45.10;;;;;;5072645;28;19908;-62
2022/06/20 11:34:41;;;;;;;;;;;25.50;45.00;;;;;;5072775;28;19936;-62
2022/06/20 11:37:12;;;;;;;;;;;25.40;45.30;;;;;;5054654;28;19908;-62
2022/06/20 11:39:44;;;;;;;;;;;25.50;45.40;;;;;;5072330;28;20485;-61
2022/06/20 11:42:46;;;;;;;;;;;25.40;46.00;;;;;;5054766;28;20005;-62
2022/06/20 11:45:23;;;;;;;;;;;25.40;45.40;;;;;;5010508;28;19910;-62
2022/06/20 11:47:52;;;;;;;;;;;25.40;45.40;;;;;;5046909;28;19973;-62
2022/06/20 11:50:17;;;;;;;;;;;25.40;45.30;;;;;;5054812;28;20352;-62
2022/06/20 11:52:52;;;;;;;;;;;25.40;45.30;;;;;;5072403;28;19912;-62
2022/06/20 11:55:20;;;;;;;;;;;25.40;45.30;;;;;;5054544;28;19934;-62
2022/06/20 11:57:47;;;;;;;;;;;25.40;45.20;;;;;;5072579;28;19913;-62
2022/06/20 12:00:23;;;;;;;;;;;25.40;45.10;;;;;;5072307;28;19955;-62
2022/06/20 12:02:52;;;;;;;;;;;25.50;45.20;;;;;;5056870;28;19912;-62
2022/06/20 12:05:17;;;;;;;;;;;25.50;45.10;;;;;;5076083;28;19915;-62
2022/06/20 12:07:49;;;;;;;;;;;25.50;45.00;;;;;;5075866;28;19912;-62
2022/06/20 12:10:16;;;;;;;;;;;25.40;45.00;;;;;;5076091;28;19961;-62
2022/06/20 12:12:57;;;;;;;;;;;25.40;45.10;;;;;;5058083;28;20003;-62
2022/06/20 12:15:35;;;;;;;;;;;25.30;45.30;;;;;;5058098;28;20315;-62
2022/06/20 12:18:19;;;;;;;;;;;25.30;45.40;;;;;;5058117;28;19952;-62
2022/06/20 12:23:40;;;;;;;;;;;25.30;45.40;;;;;;5060608;28;19931;-62
2022/06/20 12:26:06;;;;;;;;;;;25.40;45.30;;;;;;5058411;28;19937;-63
2022/06/20 12:28:38;;;;;;;;;;;25.40;45.00;;;;;;5075680;28;19909;-62
2022/06/20 12:31:15;;;;;;;;;;;25.50;44.90;;;;;;5057813;28;19909;-62
2022/06/20 12:33:45;;;;;;;;;;;25.50;44.70;;;;;;5057471;28;19916;-63
2022/06/20 12:36:19;;;;;;;;;;;25.50;44.80;;;;;;5057631;28;20001;-63
2022/06/20 12:38:56;;;;;;;;;;;25.40;44.80;;;;;;5075593;28;19909;-62
2022/06/20 12:41:22;;;;;;;;;;;25.40;45.00;;;;;;5057641;28;19912;-62
2022/06/20 12:43:54;;;;;;;;;;;25.40;44.80;;;;;;5057437;28;19909;-62
2022/06/20 12:46:29;;;;;;;;;;;25.40;44.90;;;;;;5075255;28;19909;-63
2022/06/20 12:49:00;;;;;;;;;;;25.50;44.80;;;;;;5074930;28;19970;-62
2022/06/20 12:51:37;;;;;;;;;;;25.50;44.70;;;;;;5075222;28;19948;-63
2022/06/20 12:54:07;;;;;;;;;;;25.60;44.60;;;;;;5057591;28;20392;-62
2022/06/20 12:56:39;;;;;;;;;;;25.60;44.50;;;;;;5075048;28;19908;-62
2022/06/20 12:59:25;;;;;;;;;;;25.60;44.40;;;;;;5057403;28;19916;-62
2022/06/20 13:02:08;;;;;;;;;;;25.60;44.50;;;;;;5075482;28;20361;-62
2022/06/20 13:04:53;;;;;;;;;;;25.50;44.50;;;;;;5075022;28;19909;-63
2022/06/20 13:07:36;;;;;;;;;;;25.50;44.60;;;;;;5074914;28;19909;-63
2022/06/20 13:10:20;;;;;;;;;;;25.50;44.30;;;;;;5074989;28;19931;-62
2022/06/20 13:13:04;;;;;;;;;;;25.50;44.30;;;;;;5074579;28;19995;-62
2022/06/20 13:15:40;;;;;;;;;;;25.50;44.30;;;;;;5056628;28;20376;-62
2022/06/20 13:18:22;;;;;;;;;;;25.50;44.40;;;;;;5057064;28;19919;-62
2022/06/20 13:20:49;;;;;;;;;;;25.50;44.40;;;;;;5056925;28;19920;-62
2022/06/20 13:23:14;;;;;;;;;;;25.50;44.30;;;;;;5074826;28;20280;-62
2022/06/20 13:25:56;;;;;;;;;;;25.50;44.40;;;;;;5074675;28;19915;-62
2022/06/20 13:28:27;;;;;;;;;;;25.50;44.30;;;;;;5056800;28;19915;-62
2022/06/20 13:31:04;;;;;;;;;;;25.50;44.50;;;;;;5074483;28;19909;-62
2022/06/20 13:33:36;;;;;;;;;;;25.50;44.50;;;;;;5074391;28;19954;-62
2022/06/20 13:36:19;;;;;;;;;;;25.50;44.30;;;;;;5056685;28;19944;-62
2022/06/20 13:38:53;;;;;;;;;;;25.50;44.40;;;;;;5056483;28;20046;-62
2022/06/20 13:41:19;;;;;;;;;;;25.50;44.50;;;;;;5057027;28;20011;-63
2022/06/20 13:43:56;;;;;;;;;;;25.50;44.50;;;;;;5074369;28;20293;-62
2022/06/20 13:46:44;;;;;;;;;;;25.50;44.40;;;;;;5056505;28;20288;-63
2022/06/20 13:49:11;;;;;;;;;;;25.50;44.30;;;;;;5056307;28;19921;-62
2022/06/20 13:51:41;;;;;;;;;;;25.60;44.30;;;;;;5056243;28;20467;-62
2022/06/20 13:54:15;;;;;;;;;;;25.60;44.00;;;;;;5056339;28;20288;-63
2022/06/20 13:57:01;;;;;;;;;;;25.60;44.10;;;;;;5074011;28;19993;-62
2022/06/20 13:59:29;;;;;;;;;;;25.60;44.20;;;;;;5045336;28;19915;-62
2022/06/20 14:02:01;;;;;;;;;;;25.50;44.30;;;;;;5074126;28;19912;-62
2022/06/20 14:04:27;;;;;;;;;;;25.50;44.30;;;;;;5074159;28;20387;-62
2022/06/20 14:06:54;;;;;;;;;;;25.50;44.10;;;;;;5074246;28;19908;-62
2022/06/20 14:09:22;;;;;;;;;;;25.60;44.00;;;;;;5073954;28;19934;-62
2022/06/20 14:11:55;;;;;;;;;;;25.60;44.00;;;;;;5073802;28;19909;-62
2022/06/20 14:14:39;;;;;;;;;;;25.60;43.90;;;;;;5073774;28;20091;-63
2022/06/20 14:17:21;;;;;;;;;;;25.60;43.90;;;;;;5056154;28;19995;-62
2022/06/20 14:19:48;;;;;;;;;;;25.60;44.00;;;;;;5055774;28;19909;-62
2022/06/20 14:22:31;;;;;;;;;;;25.60;43.90;;;;;;5056257;28;19908;-62
2022/06/20 14:24:57;;;;;;;;;;;25.60;44.00;;;;;;5063129;28;19909;-62
2022/06/20 14:27:26;;;;;;;;;;;25.60;43.90;;;;;;5055801;28;20000;-62
2022/06/20 14:29:57;;;;;;;;;;;25.60;44.00;;;;;;5056038;28;20288;-62
2022/06/20 14:32:24;;;;;;;;;;;25.60;44.10;;;;;;5055559;28;19909;-62
2022/06/20 14:37:51;;;;;;;;;;;25.70;44.00;;;;;;5058275;28;19935;-62
2022/06/20 14:40:18;;;;;;;;;;;25.60;44.00;;;;;;5073287;28;20399;-62
2022/06/20 14:42:47;;;;;;;;;;;25.60;44.00;;;;;;5055417;28;19912;-62
2022/06/20 14:45:21;;;;;;;;;;;25.60;44.20;;;;;;5055488;28;19909;-63
2022/06/20 14:48:09;;;;;;;;;;;25.60;44.20;;;;;;5071943;28;19932;-63
2022/06/20 14:50:41;;;;;;;;;;;25.60;44.20;;;;;;5055348;28;19913;-63